sensor_id;sensor_type;location;lat;lon;timestamp;pressure;altitude;pressure_sealevel;temperature;humidity
39793;BME280;26080;42.264;24.536;2022-10-10T00:00:05;100044.72;;;10.69;100.00
39793;BME280;26080;42.264;24.536;2022-10-10T00:02:31;100056.72;;;10.75;100.00
39793;BME280;26080;42.264;24.536;2022-10-10T00:04:57;100056.72;;;10.75;100.00
39793;BME280;26080;42.264;24.536;2022-10-10T00:07:22;100045.50;;;10.71;100.00
39793;BME280;26080;42.264;24.536;2022-10-10T00:09:48;100048.91;;;10.73;100.00
39793;BME280;26080;42.264;24.536;2022-10-10T00:12:13;100049.41;;;10.59;100.00
39793;BME280;26080;42.264;24.536;2022-10-10T00:14:39;100057.34;;;10.58;100.00
39793;BME280;26080;42.264;24.536;2022-10-10T00:17:04;100058.25;;;10.57;100.00
39793;BME280;26080;42.264;24.536;2022-10-10T00:19:30;100048.88;;;10.50;100.00
39793;BME280;26080;42.264;24.536;2022-10-10T00:21:56;100058.31;;;10.54;100.00
39793;BME280;26080;42.264;24.536;2022-10-10T00:24:21;100049.03;;;10.45;100.00
39793;BME280;26080;42.264;24.536;2022-10-10T00:26:47;100053.44;;;10.45;100.00
39793;BME280;26080;42.264;24.536;2022-10-10T00:29:12;100049.91;;;10.46;100.00
39793;BME280;26080;42.264;24.536;2022-10-10T00:31:38;100056.09;;;10.43;100.00
39793;BME280;26080;42.264;24.536;2022-10-10T00:34:03;100054.81;;;10.30;100.00
39793;BME280;26080;42.264;24.536;2022-10-10T00:36:28;100059.38;;;10.23;100.00
39793;BME280;26080;42.264;24.536;2022-10-10T00:38:54;100049.28;;;10.11;100.00
39793;BME280;26080;42.264;24.536;2022-10-10T00:41:20;100070.13;;;10.14;100.00
39793;BME280;26080;42.264;24.536;2022-10-10T00:44:07;100070.09;;;9.89;100.00
39793;BME280;26080;42.264;24.536;2022-10-10T00:46:33;100066.16;;;9.76;100.00
39793;BME280;26080;42.264;24.536;2022-10-10T00:48:59;100071.72;;;9.65;100.00
39793;BME280;26080;42.264;24.536;2022-10-10T00:51:25;100061.75;;;9.50;100.00
39793;BME280;26080;42.264;24.536;2022-10-10T00:53:55;100061.75;;;9.50;100.00
39793;BME280;26080;42.264;24.536;2022-10-10T00:56:29;100063.59;;;9.46;100.00
39793;BME280;26080;42.264;24.536;2022-10-10T00:58:57;100062.66;;;9.49;100.00
39793;BME280;26080;42.264;24.536;2022-10-10T01:01:25;100068.09;;;9.41;100.00
39793;BME280;26080;42.264;24.536;2022-10-10T01:03:55;100054.59;;;9.55;100.00
39793;BME280;26080;42.264;24.536;2022-10-10T01:06:21;100060.97;;;9.74;100.00
39793;BME280;26080;42.264;24.536;2022-10-10T01:08:46;100058.09;;;9.82;100.00
39793;BME280;26080;42.264;24.536;2022-10-10T01:11:38;100065.94;;;9.82;100.00
39793;BME280;26080;42.264;24.536;2022-10-10T01:14:37;100068.56;;;9.82;100.00
39793;BME280;26080;42.264;24.536;2022-10-10T01:22:38;100063.19;;;9.87;100.00
39793;BME280;26080;42.264;24.536;2022-10-10T01:30:45;100062.88;;;9.69;100.00
39793;BME280;26080;42.264;24.536;2022-10-10T01:33:15;100072.03;;;9.55;100.00
39793;BME280;26080;42.264;24.536;2022-10-10T01:41:00;100065.69;;;9.35;100.00
39793;BME280;26080;42.264;24.536;2022-10-10T01:43:28;100081.84;;;9.48;100.00
39793;BME280;26080;42.264;24.536;2022-10-10T01:45:54;100058.59;;;9.39;100.00
39793;BME280;26080;42.264;24.536;2022-10-10T01:48:24;100087.59;;;9.59;100.00
39793;BME280;26080;42.264;24.536;2022-10-10T01:59:18;100087.78;;;9.53;100.00
39793;BME280;26080;42.264;24.536;2022-10-10T02:01:54;100097.53;;;9.48;100.00
39793;BME280;26080;42.264;24.536;2022-10-10T02:06:59;100079.06;;;9.25;100.00
39793;BME280;26080;42.264;24.536;2022-10-10T02:09:35;100105.44;;;9.45;100.00
39793;BME280;26080;42.264;24.536;2022-10-10T02:12:02;100105.38;;;9.48;100.00
39793;BME280;26080;42.264;24.536;2022-10-10T02:14:33;100101.66;;;9.55;100.00
39793;BME280;26080;42.264;24.536;2022-10-10T02:17:02;100108.34;;;9.65;100.00
39793;BME280;26080;42.264;24.536;2022-10-10T02:19:30;100095.78;;;9.76;100.00
39793;BME280;26080;42.264;24.536;2022-10-10T02:21:57;100071.34;;;9.77;100.00
39793;BME280;26080;42.264;24.536;2022-10-10T02:24:23;100094.69;;;9.84;100.00
39793;BME280;26080;42.264;24.536;2022-10-10T02:26:58;100096.31;;;9.88;100.00
39793;BME280;26080;42.264;24.536;2022-10-10T02:29:28;100109.41;;;9.88;100.00
39793;BME280;26080;42.264;24.536;2022-10-10T02:32:03;100091.53;;;9.72;100.00
39793;BME280;26080;42.264;24.536;2022-10-10T02:34:36;100111.59;;;9.73;100.00
39793;BME280;26080;42.264;24.536;2022-10-10T02:37:05;100109.56;;;9.82;100.00
39793;BME280;26080;42.264;24.536;2022-10-10T02:39:37;100115.28;;;9.94;100.00
39793;BME280;26080;42.264;24.536;2022-10-10T02:42:06;100109.41;;;9.88;100.00
39793;BME280;26080;42.264;24.536;2022-10-10T02:44:33;100116.50;;;9.83;100.00
39793;BME280;26080;42.264;24.536;2022-10-10T02:46:59;100097.78;;;9.68;100.00
39793;BME280;26080;42.264;24.536;2022-10-10T02:49:27;100124.69;;;9.72;100.00
39793;BME280;26080;42.264;24.536;2022-10-10T02:51:53;100112.19;;;9.82;100.00
39793;BME280;26080;42.264;24.536;2022-10-10T02:54:18;100122.66;;;9.82;100.00
39793;BME280;26080;42.264;24.536;2022-10-10T02:56:44;100122.00;;;9.75;100.00
39793;BME280;26080;42.264;24.536;2022-10-10T02:59:09;100120.47;;;9.68;100.00
39793;BME280;26080;42.264;24.536;2022-10-10T03:01:35;100132.59;;;9.70;100.00
39793;BME280;26080;42.264;24.536;2022-10-10T03:04:00;100120.06;;;9.52;100.00
39793;BME280;26080;42.264;24.536;2022-10-10T03:06:27;100134.34;;;9.40;100.00
39793;BME280;26080;42.264;24.536;2022-10-10T03:08:52;100133.75;;;9.32;100.00
39793;BME280;26080;42.264;24.536;2022-10-10T03:11:18;100135.56;;;9.29;100.00
39793;BME280;26080;42.264;24.536;2022-10-10T03:13:44;100129.56;;;9.25;100.00
39793;BME280;26080;42.264;24.536;2022-10-10T03:16:09;100131.25;;;9.28;100.00
39793;BME280;26080;42.264;24.536;2022-10-10T03:18:35;100134.03;;;9.22;100.00
39793;BME280;26080;42.264;24.536;2022-10-10T03:21:01;100115.63;;;8.95;100.00
39793;BME280;26080;42.264;24.536;2022-10-10T03:23:27;100151.59;;;9.16;100.00
39793;BME280;26080;42.264;24.536;2022-10-10T03:25:53;100147.28;;;9.15;100.00
39793;BME280;26080;42.264;24.536;2022-10-10T03:28:18;100144.94;;;9.06;100.00
39793;BME280;26080;42.264;24.536;2022-10-10T03:30:44;100148.31;;;9.10;100.00
39793;BME280;26080;42.264;24.536;2022-10-10T03:33:10;100157.16;;;9.04;100.00
39793;BME280;26080;42.264;24.536;2022-10-10T03:35:36;100153.81;;;8.99;100.00
39793;BME280;26080;42.264;24.536;2022-10-10T03:38:02;100155.59;;;8.99;100.00
39793;BME280;26080;42.264;24.536;2022-10-10T03:40:28;100150.97;;;9.08;100.00
39793;BME280;26080;42.264;24.536;2022-10-10T03:42:54;100164.50;;;8.90;100.00
39793;BME280;26080;42.264;24.536;2022-10-10T03:45:20;100158.03;;;8.72;100.00
39793;BME280;26080;42.264;24.536;2022-10-10T03:47:45;100156.59;;;8.60;100.00
39793;BME280;26080;42.264;24.536;2022-10-10T03:50:11;100155.72;;;8.60;100.00
39793;BME280;26080;42.264;24.536;2022-10-10T03:52:36;100130.88;;;8.45;100.00
39793;BME280;26080;42.264;24.536;2022-10-10T03:55:02;100153.34;;;8.52;100.00
39793;BME280;26080;42.264;24.536;2022-10-10T03:57:28;100153.47;;;8.46;100.00
39793;BME280;26080;42.264;24.536;2022-10-10T03:59:53;100154.72;;;8.66;100.00
39793;BME280;26080;42.264;24.536;2022-10-10T04:02:19;100152.44;;;8.53;100.00
39793;BME280;26080;42.264;24.536;2022-10-10T04:04:44;100153.38;;;8.49;100.00
39793;BME280;26080;42.264;24.536;2022-10-10T04:07:10;100151.16;;;8.34;100.00
39793;BME280;26080;42.264;24.536;2022-10-10T04:09:35;100155.63;;;8.29;100.00
39793;BME280;26080;42.264;24.536;2022-10-10T04:12:01;100153.91;;;8.28;100.00
39793;BME280;26080;42.264;24.536;2022-10-10T04:14:26;100132.28;;;8.23;100.00
39793;BME280;26080;42.264;24.536;2022-10-10T04:16:52;100123.47;;;8.27;100.00
39793;BME280;26080;42.264;24.536;2022-10-10T04:19:17;100157.06;;;8.42;100.00
39793;BME280;26080;42.264;24.536;2022-10-10T04:21:43;100153.50;;;8.45;100.00
39793;BME280;26080;42.264;24.536;2022-10-10T04:24:08;100157.97;;;8.41;100.00
39793;BME280;26080;42.264;24.536;2022-10-10T04:26:34;100164.66;;;8.51;100.00
39793;BME280;26080;42.264;24.536;2022-10-10T04:29:00;100158.47;;;8.55;100.00
39793;BME280;26080;42.264;24.536;2022-10-10T04:31:26;100166.13;;;8.61;100.00
39793;BME280;26080;42.264;24.536;2022-10-10T04:33:51;100140.16;;;8.57;100.00
39793;BME280;26080;42.264;24.536;2022-10-10T04:36:17;100154.88;;;8.59;100.00
39793;BME280;26080;42.264;24.536;2022-10-10T04:38:42;100166.06;;;8.65;100.00
39793;BME280;26080;42.264;24.536;2022-10-10T04:41:08;100170.72;;;8.53;100.00
39793;BME280;26080;42.264;24.536;2022-10-10T04:43:34;100169.38;;;8.37;100.00
39793;BME280;26080;42.264;24.536;2022-10-10T04:45:59;100183.31;;;8.36;100.00
39793;BME280;26080;42.264;24.536;2022-10-10T04:48:25;100186.13;;;8.27;100.00
39793;BME280;26080;42.264;24.536;2022-10-10T04:50:53;100185.22;;;8.28;100.00
39793;BME280;26080;42.264;24.536;2022-10-10T04:53:19;100190.25;;;8.37;100.00
39793;BME280;26080;42.264;24.536;2022-10-10T04:55:45;100181.38;;;8.44;100.00
39793;BME280;26080;42.264;24.536;2022-10-10T04:58:11;100176.06;;;8.47;100.00
39793;BME280;26080;42.264;24.536;2022-10-10T05:00:39;100191.50;;;8.56;100.00
39793;BME280;26080;42.264;24.536;2022-10-10T05:03:06;100191.13;;;8.72;100.00
39793;BME280;26080;42.264;24.536;2022-10-10T05:05:31;100189.25;;;8.77;100.00
39793;BME280;26080;42.264;24.536;2022-10-10T05:07:57;100200.31;;;8.86;100.00
39793;BME280;26080;42.264;24.536;2022-10-10T05:10:24;100196.75;;;8.89;100.00
39793;BME280;26080;42.264;24.536;2022-10-10T05:12:50;100198.81;;;8.78;100.00
39793;BME280;26080;42.264;24.536;2022-10-10T05:15:16;100201.94;;;8.92;100.00
39793;BME280;26080;42.264;24.536;2022-10-10T05:17:41;100196.69;;;8.92;100.00
39793;BME280;26080;42.264;24.536;2022-10-10T05:20:07;100207.47;;;9.12;100.00
39793;BME280;26080;42.264;24.536;2022-10-10T05:22:32;100204.38;;;9.29;100.00
39793;BME280;26080;42.264;24.536;2022-10-10T05:24:58;100209.22;;;9.43;100.00
39793;BME280;26080;42.264;24.536;2022-10-10T05:27:25;100207.41;;;9.46;100.00
39793;BME280;26080;42.264;24.536;2022-10-10T05:29:50;100207.41;;;9.46;100.00
39793;BME280;26080;42.264;24.536;2022-10-10T05:32:16;100204.47;;;9.57;100.00
39793;BME280;26080;42.264;24.536;2022-10-10T05:34:41;100218.59;;;9.81;100.00
39793;BME280;26080;42.264;24.536;2022-10-10T05:37:07;100214.75;;;9.93;100.00
39793;BME280;26080;42.264;24.536;2022-10-10T05:39:33;100189.50;;;9.92;100.00
39793;BME280;26080;42.264;24.536;2022-10-10T05:41:59;100213.22;;;10.14;100.00
39793;BME280;26080;42.264;24.536;2022-10-10T05:44:24;100206.63;;;10.31;100.00
39793;BME280;26080;42.264;24.536;2022-10-10T05:46:50;100207.03;;;10.46;100.00
39793;BME280;26080;42.264;24.536;2022-10-10T05:49:16;100205.63;;;10.62;100.00
39793;BME280;26080;42.264;24.536;2022-10-10T05:51:41;100214.88;;;10.72;100.00
39793;BME280;26080;42.264;24.536;2022-10-10T05:54:07;100218.75;;;10.87;100.00
39793;BME280;26080;42.264;24.536;2022-10-10T05:56:32;100210.41;;;11.01;100.00
39793;BME280;26080;42.264;24.536;2022-10-10T05:58:58;100226.66;;;11.35;100.00
39793;BME280;26080;42.264;24.536;2022-10-10T06:01:23;100231.34;;;11.50;100.00
39793;BME280;26080;42.264;24.536;2022-10-10T06:03:49;100232.63;;;11.64;100.00
39793;BME280;26080;42.264;24.536;2022-10-10T06:06:20;100224.34;;;11.74;100.00
39793;BME280;26080;42.264;24.536;2022-10-10T06:08:46;100229.97;;;11.89;100.00
39793;BME280;26080;42.264;24.536;2022-10-10T06:11:11;100239.81;;;12.05;100.00
39793;BME280;26080;42.264;24.536;2022-10-10T06:13:37;100192.94;;;11.96;100.00
39793;BME280;26080;42.264;24.536;2022-10-10T06:16:03;100229.00;;;12.36;100.00
39793;BME280;26080;42.264;24.536;2022-10-10T06:18:29;100222.28;;;12.51;100.00
39793;BME280;26080;42.264;24.536;2022-10-10T06:20:54;100235.84;;;12.83;100.00
39793;BME280;26080;42.264;24.536;2022-10-10T06:23:24;100227.66;;;12.90;100.00
39793;BME280;26080;42.264;24.536;2022-10-10T06:25:50;100242.97;;;13.01;100.00
39793;BME280;26080;42.264;24.536;2022-10-10T06:28:16;100238.25;;;13.09;100.00
39793;BME280;26080;42.264;24.536;2022-10-10T06:30:43;100244.03;;;13.17;100.00
39793;BME280;26080;42.264;24.536;2022-10-10T06:33:10;100247.06;;;13.28;100.00
39793;BME280;26080;42.264;24.536;2022-10-10T06:35:40;100249.94;;;13.43;100.00
39793;BME280;26080;42.264;24.536;2022-10-10T06:38:06;100249.88;;;13.64;100.00
39793;BME280;26080;42.264;24.536;2022-10-10T06:40:31;100244.69;;;13.82;100.00
39793;BME280;26080;42.264;24.536;2022-10-10T06:42:57;100251.88;;;13.97;100.00
39793;BME280;26080;42.264;24.536;2022-10-10T06:45:22;100236.66;;;13.85;100.00
39793;BME280;26080;42.264;24.536;2022-10-10T06:47:49;100249.53;;;14.10;100.00
39793;BME280;26080;42.264;24.536;2022-10-10T06:50:14;100250.97;;;14.17;100.00
39793;BME280;26080;42.264;24.536;2022-10-10T06:52:40;100232.69;;;14.14;100.00
39793;BME280;26080;42.264;24.536;2022-10-10T06:55:06;100230.25;;;14.28;100.00
39793;BME280;26080;42.264;24.536;2022-10-10T06:57:32;100254.66;;;14.50;100.00
39793;BME280;26080;42.264;24.536;2022-10-10T06:59:57;100261.81;;;14.66;100.00
39793;BME280;26080;42.264;24.536;2022-10-10T07:02:22;100258.13;;;14.70;100.00
39793;BME280;26080;42.264;24.536;2022-10-10T07:04:49;100266.28;;;14.82;100.00
39793;BME280;26080;42.264;24.536;2022-10-10T07:07:15;100259.06;;;15.03;100.00
39793;BME280;26080;42.264;24.536;2022-10-10T07:09:40;100269.75;;;15.35;100.00
39793;BME280;26080;42.264;24.536;2022-10-10T07:12:06;100264.84;;;15.62;100.00
39793;BME280;26080;42.264;24.536;2022-10-10T07:14:32;100269.47;;;15.91;100.00
39793;BME280;26080;42.264;24.536;2022-10-10T07:16:57;100279.72;;;16.29;100.00
39793;BME280;26080;42.264;24.536;2022-10-10T07:19:23;100271.88;;;16.59;100.00
39793;BME280;26080;42.264;24.536;2022-10-10T07:21:49;100271.25;;;16.85;100.00
39793;BME280;26080;42.264;24.536;2022-10-10T07:24:15;100266.78;;;17.02;100.00
39793;BME280;26080;42.264;24.536;2022-10-10T07:26:41;100273.91;;;17.15;100.00
39793;BME280;26080;42.264;24.536;2022-10-10T07:29:06;100269.63;;;17.13;100.00
39793;BME280;26080;42.264;24.536;2022-10-10T07:31:32;100243.66;;;17.20;100.00
39793;BME280;26080;42.264;24.536;2022-10-10T07:33:58;100276.34;;;17.48;98.39
39793;BME280;26080;42.264;24.536;2022-10-10T07:36:24;100278.41;;;17.43;98.57
39793;BME280;26080;42.264;24.536;2022-10-10T07:38:50;100249.81;;;17.20;100.00
39793;BME280;26080;42.264;24.536;2022-10-10T07:41:17;100289.75;;;17.31;100.00
39793;BME280;26080;42.264;24.536;2022-10-10T07:43:44;100268.16;;;17.23;100.00
39793;BME280;26080;42.264;24.536;2022-10-10T07:46:18;100277.22;;;17.19;100.00
39793;BME280;26080;42.264;24.536;2022-10-10T07:48:44;100255.34;;;17.01;100.00
39793;BME280;26080;42.264;24.536;2022-10-10T07:51:10;100251.56;;;17.05;100.00
39793;BME280;26080;42.264;24.536;2022-10-10T07:53:36;100274.59;;;17.19;100.00
39793;BME280;26080;42.264;24.536;2022-10-10T07:56:06;100266.09;;;17.28;100.00
39793;BME280;26080;42.264;24.536;2022-10-10T07:58:33;100286.53;;;17.40;100.00
39793;BME280;26080;42.264;24.536;2022-10-10T08:01:07;100289.78;;;17.45;100.00
39793;BME280;26080;42.264;24.536;2022-10-10T08:03:34;100284.50;;;17.60;98.80
39793;BME280;26080;42.264;24.536;2022-10-10T08:06:05;100280.38;;;17.70;96.18
39793;BME280;26080;42.264;24.536;2022-10-10T08:08:32;100264.06;;;17.62;95.51
39793;BME280;26080;42.264;24.536;2022-10-10T08:10:57;100289.28;;;17.69;97.05
39793;BME280;26080;42.264;24.536;2022-10-10T08:13:24;100268.69;;;17.58;96.15
39793;BME280;26080;42.264;24.536;2022-10-10T08:15:50;100280.38;;;17.70;97.59
39793;BME280;26080;42.264;24.536;2022-10-10T08:18:16;100284.94;;;17.82;97.05
39793;BME280;26080;42.264;24.536;2022-10-10T08:20:41;100283.38;;;18.06;93.86
39793;BME280;26080;42.264;24.536;2022-10-10T08:23:07;100280.72;;;18.21;91.72
39793;BME280;26080;42.264;24.536;2022-10-10T08:25:33;100283.94;;;18.26;91.38
39793;BME280;26080;42.264;24.536;2022-10-10T08:28:00;100276.63;;;18.29;92.51
39793;BME280;26080;42.264;24.536;2022-10-10T08:30:25;100278.03;;;18.35;90.69
39793;BME280;26080;42.264;24.536;2022-10-10T08:32:51;100283.34;;;18.35;90.91
39793;BME280;26080;42.264;24.536;2022-10-10T08:35:16;100277.00;;;18.38;90.50
39793;BME280;26080;42.264;24.536;2022-10-10T08:37:42;100264.97;;;18.32;93.07
39793;BME280;26080;42.264;24.536;2022-10-10T08:40:18;100264.50;;;18.40;92.21
39793;BME280;26080;42.264;24.536;2022-10-10T08:42:48;100256.59;;;18.52;90.79
39793;BME280;26080;42.264;24.536;2022-10-10T08:45:23;100261.50;;;18.58;91.71
39793;BME280;26080;42.264;24.536;2022-10-10T08:47:57;100260.34;;;18.62;91.00
39793;BME280;26080;42.264;24.536;2022-10-10T08:50:29;100241.00;;;18.60;91.39
39793;BME280;26080;42.264;24.536;2022-10-10T08:53:19;100263.03;;;19.02;88.02
39793;BME280;26080;42.264;24.536;2022-10-10T08:55:43;100260.72;;;19.10;86.10
39793;BME280;26080;42.264;24.536;2022-10-10T09:03:45;100257.25;;;19.22;86.43
39793;BME280;26080;42.264;24.536;2022-10-10T09:22:30;100250.38;;;19.83;79.15
39793;BME280;26080;42.264;24.536;2022-10-10T09:25:02;100254.22;;;19.79;80.73
39793;BME280;26080;42.264;24.536;2022-10-10T09:27:33;100258.25;;;19.72;81.07
39793;BME280;26080;42.264;24.536;2022-10-10T09:30:13;100251.97;;;19.73;81.69
39793;BME280;26080;42.264;24.536;2022-10-10T09:32:56;100235.94;;;19.75;81.62
39793;BME280;26080;42.264;24.536;2022-10-10T09:35:23;100238.78;;;19.85;82.62
39793;BME280;26080;42.264;24.536;2022-10-10T09:38:37;100239.38;;;20.01;81.28
39793;BME280;26080;42.264;24.536;2022-10-10T09:40:48;100225.47;;;19.97;80.62
39793;BME280;26080;42.264;24.536;2022-10-10T09:43:18;100231.06;;;20.18;78.54
39793;BME280;26080;42.264;24.536;2022-10-10T09:45:47;100204.97;;;20.23;78.86
39793;BME280;26080;42.264;24.536;2022-10-10T09:48:15;100219.41;;;20.45;79.90
39793;BME280;26080;42.264;24.536;2022-10-10T09:50:40;100179.16;;;20.36;74.68
39793;BME280;26080;42.264;24.536;2022-10-10T09:53:06;100214.16;;;20.67;75.95
39793;BME280;26080;42.264;24.536;2022-10-10T09:55:38;100183.91;;;20.68;75.21
39793;BME280;26080;42.264;24.536;2022-10-10T10:00:48;100211.78;;;20.75;76.64
39793;BME280;26080;42.264;24.536;2022-10-10T10:03:19;100219.09;;;20.84;73.94
39793;BME280;26080;42.264;24.536;2022-10-10T10:05:53;100207.47;;;20.85;72.23
39793;BME280;26080;42.264;24.536;2022-10-10T10:08:26;100213.25;;;20.79;72.88
39793;BME280;26080;42.264;24.536;2022-10-10T10:10:52;100212.16;;;20.82;73.30
39793;BME280;26080;42.264;24.536;2022-10-10T10:13:25;100190.94;;;20.69;73.69
39793;BME280;26080;42.264;24.536;2022-10-10T10:16:04;100202.22;;;20.73;73.70
39793;BME280;26080;42.264;24.536;2022-10-10T10:18:37;100198.84;;;20.82;73.41
39793;BME280;26080;42.264;24.536;2022-10-10T10:23:34;100201.72;;;21.03;71.29
39793;BME280;26080;42.264;24.536;2022-10-10T10:26:05;100185.97;;;20.99;73.44
39793;BME280;26080;42.264;24.536;2022-10-10T10:28:39;100187.22;;;21.18;71.18
39793;BME280;26080;42.264;24.536;2022-10-10T10:31:14;100189.69;;;21.32;70.33
39793;BME280;26080;42.264;24.536;2022-10-10T10:33:44;100184.13;;;21.46;69.72
39793;BME280;26080;42.264;24.536;2022-10-10T10:39:16;100177.09;;;21.79;69.21
39793;BME280;26080;42.264;24.536;2022-10-10T10:41:59;100169.06;;;21.90;68.13
39793;BME280;26080;42.264;24.536;2022-10-10T10:49:47;100170.31;;;22.08;64.91
39793;BME280;26080;42.264;24.536;2022-10-10T11:00:17;100150.41;;;22.12;64.98
39793;BME280;26080;42.264;24.536;2022-10-10T11:14:15;100139.69;;;22.24;62.74
39793;BME280;26080;42.264;24.536;2022-10-10T11:16:47;100141.41;;;22.25;63.49
39793;BME280;26080;42.264;24.536;2022-10-10T11:21:55;100142.66;;;22.09;65.46
39793;BME280;26080;42.264;24.536;2022-10-10T11:24:42;100135.56;;;22.20;65.03
39793;BME280;26080;42.264;24.536;2022-10-10T11:27:14;100133.00;;;22.29;67.73
39793;BME280;26080;42.264;24.536;2022-10-10T11:32:53;100133.81;;;22.41;64.78
39793;BME280;26080;42.264;24.536;2022-10-10T11:37:59;100123.22;;;22.71;61.72
39793;BME280;26080;42.264;24.536;2022-10-10T11:41:07;100131.75;;;22.65;65.29
39793;BME280;26080;42.264;24.536;2022-10-10T11:44:01;100125.84;;;22.83;65.90
39793;BME280;26080;42.264;24.536;2022-10-10T11:49:06;100133.38;;;23.19;61.69
39793;BME280;26080;42.264;24.536;2022-10-10T11:57:06;100109.94;;;23.02;60.54
39793;BME280;26080;42.264;24.536;2022-10-10T11:59:43;100105.06;;;22.86;62.64
39793;BME280;26080;42.264;24.536;2022-10-10T12:02:32;100094.38;;;22.86;62.66
39793;BME280;26080;42.264;24.536;2022-10-10T12:04:58;100088.72;;;22.80;60.70
39793;BME280;26080;42.264;24.536;2022-10-10T12:07:31;100095.28;;;22.55;62.67
39793;BME280;26080;42.264;24.536;2022-10-10T12:10:26;100094.53;;;22.32;64.04
39793;BME280;26080;42.264;24.536;2022-10-10T12:12:57;100090.22;;;22.20;64.08
39793;BME280;26080;42.264;24.536;2022-10-10T12:15:32;100072.91;;;22.14;63.63
39793;BME280;26080;42.264;24.536;2022-10-10T12:17:58;100104.03;;;22.25;64.78
39793;BME280;26080;42.264;24.536;2022-10-10T12:25:45;100077.66;;;22.10;64.20
39793;BME280;26080;42.264;24.536;2022-10-10T12:44:20;100093.22;;;21.83;66.78
39793;BME280;26080;42.264;24.536;2022-10-10T12:46:46;100091.28;;;21.85;64.96
39793;BME280;26080;42.264;24.536;2022-10-10T12:49:23;100093.94;;;21.85;64.50
39793;BME280;26080;42.264;24.536;2022-10-10T12:52:11;100076.88;;;21.76;65.04
39793;BME280;26080;42.264;24.536;2022-10-10T12:54:43;100089.69;;;21.94;63.61
39793;BME280;26080;42.264;24.536;2022-10-10T12:57:23;100077.81;;;21.86;65.09
39793;BME280;26080;42.264;24.536;2022-10-10T12:59:51;100089.53;;;22.06;64.33
39793;BME280;26080;42.264;24.536;2022-10-10T13:02:28;100093.41;;;22.13;62.49
39793;BME280;26080;42.264;24.536;2022-10-10T13:04:56;100081.50;;;22.17;63.36
39793;BME280;26080;42.264;24.536;2022-10-10T13:07:23;100058.00;;;22.00;63.33
39793;BME280;26080;42.264;24.536;2022-10-10T13:09:52;100069.41;;;22.13;62.34
39793;BME280;26080;42.264;24.536;2022-10-10T13:12:25;100081.50;;;22.17;62.83
39793;BME280;26080;42.264;24.536;2022-10-10T13:14:51;100062.63;;;21.98;64.82
39793;BME280;26080;42.264;24.536;2022-10-10T13:19:51;100060.28;;;22.05;63.59
39793;BME280;26080;42.264;24.536;2022-10-10T13:22:17;100055.09;;;22.14;63.69
39793;BME280;26080;42.264;24.536;2022-10-10T13:24:43;100056.84;;;22.25;64.22
39793;BME280;26080;42.264;24.536;2022-10-10T13:29:48;100042.19;;;22.20;65.08
39793;BME280;26080;42.264;24.536;2022-10-10T13:32:20;100053.03;;;22.39;64.58
39793;BME280;26080;42.264;24.536;2022-10-10T13:34:50;100052.19;;;22.38;64.22
39793;BME280;26080;42.264;24.536;2022-10-10T13:37:18;100048.41;;;22.41;65.09
39793;BME280;26080;42.264;24.536;2022-10-10T13:39:44;100047.75;;;22.28;66.30
39793;BME280;26080;42.264;24.536;2022-10-10T13:42:34;100030.50;;;22.00;66.83
39793;BME280;26080;42.264;24.536;2022-10-10T13:45:02;100026.09;;;21.78;67.34
39793;BME280;26080;42.264;24.536;2022-10-10T13:50:27;100051.81;;;21.68;68.81
39793;BME280;26080;42.264;24.536;2022-10-10T13:59:04;100061.44;;;21.91;66.38
39793;BME280;26080;42.264;24.536;2022-10-10T14:04:17;100054.94;;;21.84;66.81
39793;BME280;26080;42.264;24.536;2022-10-10T14:09:38;100054.44;;;21.79;67.08
39793;BME280;26080;42.264;24.536;2022-10-10T14:12:13;100012.81;;;21.67;66.32
39793;BME280;26080;42.264;24.536;2022-10-10T14:14:44;100042.75;;;21.91;65.51
39793;BME280;26080;42.264;24.536;2022-10-10T14:17:12;100038.94;;;21.84;65.99
39793;BME280;26080;42.264;24.536;2022-10-10T14:19:38;100048.06;;;21.59;69.54
39793;BME280;26080;42.264;24.536;2022-10-10T14:22:03;100038.84;;;21.63;68.97
39793;BME280;26080;42.264;24.536;2022-10-10T14:24:29;100030.84;;;21.63;68.34
39793;BME280;26080;42.264;24.536;2022-10-10T14:26:55;100029.56;;;21.57;68.49
39793;BME280;26080;42.264;24.536;2022-10-10T14:29:21;100024.47;;;21.54;67.98
39793;BME280;26080;42.264;24.536;2022-10-10T14:31:47;100033.19;;;21.56;69.79
39793;BME280;26080;42.264;24.536;2022-10-10T14:34:13;100036.81;;;21.55;69.85
39793;BME280;26080;42.264;24.536;2022-10-10T14:36:47;100033.31;;;21.55;68.94
39793;BME280;26080;42.264;24.536;2022-10-10T14:39:18;100029.56;;;21.57;67.62
39793;BME280;26080;42.264;24.536;2022-10-10T14:41:44;100004.88;;;21.33;68.44
39793;BME280;26080;42.264;24.536;2022-10-10T14:44:10;100026.56;;;21.40;68.58
39793;BME280;26080;42.264;24.536;2022-10-10T14:46:36;100018.44;;;21.19;70.32
39793;BME280;26080;42.264;24.536;2022-10-10T14:49:02;100027.28;;;21.08;70.61
39793;BME280;26080;42.264;24.536;2022-10-10T14:51:28;100034.78;;;21.03;70.37
39793;BME280;26080;42.264;24.536;2022-10-10T14:53:53;100015.31;;;20.91;71.60
39793;BME280;26080;42.264;24.536;2022-10-10T14:56:19;100020.88;;;20.88;71.39
39793;BME280;26080;42.264;24.536;2022-10-10T14:58:45;100010.59;;;20.73;72.99
39793;BME280;26080;42.264;24.536;2022-10-10T15:01:10;100023.16;;;20.70;73.24
39793;BME280;26080;42.264;24.536;2022-10-10T15:03:37;100021.91;;;20.52;75.22